sensor_id;sensor_type;location;lat;lon;timestamp;temperature;humidity
21298;DHT22;10808;48.010;11.326;2023-09-19T00:01:19;16.80;99.90
21298;DHT22;10808;48.010;11.326;2023-09-19T00:03:46;16.80;99.90
21298;DHT22;10808;48.010;11.326;2023-09-19T00:06:12;16.80;99.90
21298;DHT22;10808;48.010;11.326;2023-09-19T00:08:41;16.80;99.90
21298;DHT22;10808;48.010;11.326;2023-09-19T00:11:10;16.80;99.90
21298;DHT22;10808;48.010;11.326;2023-09-19T00:13:36;16.80;99.90
21298;DHT22;10808;48.010;11.326;2023-09-19T00:16:09;16.80;99.90
21298;DHT22;10808;48.010;11.326;2023-09-19T00:18:37;16.80;99.90
21298;DHT22;10808;48.010;11.326;2023-09-19T00:21:03;16.80;99.90
21298;DHT22;10808;48.010;11.326;2023-09-19T00:23:33;16.90;99.90
21298;DHT22;10808;48.010;11.326;2023-09-19T00:26:00;16.80;99.90
21298;DHT22;10808;48.010;11.326;2023-09-19T00:28:27;16.80;99.90
21298;DHT22;10808;48.010;11.326;2023-09-19T00:30:53;16.80;99.90
21298;DHT22;10808;48.010;11.326;2023-09-19T00:33:22;16.80;99.90
21298;DHT22;10808;48.010;11.326;2023-09-19T00:35:51;16.80;99.90
21298;DHT22;10808;48.010;11.326;2023-09-19T00:38:18;16.80;99.90
21298;DHT22;10808;48.010;11.326;2023-09-19T00:40:48;16.80;99.90
21298;DHT22;10808;48.010;11.326;2023-09-19T00:43:14;16.80;99.90
21298;DHT22;10808;48.010;11.326;2023-09-19T00:45:46;16.80;99.90
21298;DHT22;10808;48.010;11.326;2023-09-19T00:48:15;16.80;99.90
21298;DHT22;10808;48.010;11.326;2023-09-19T00:50:42;16.80;99.90
21298;DHT22;10808;48.010;11.326;2023-09-19T00:53:14;16.80;99.90
21298;DHT22;10808;48.010;11.326;2023-09-19T00:55:40;16.80;99.90
21298;DHT22;10808;48.010;11.326;2023-09-19T00:58:08;16.80;99.90
21298;DHT22;10808;48.010;11.326;2023-09-19T01:00:36;16.80;99.90
21298;DHT22;10808;48.010;11.326;2023-09-19T01:03:02;16.80;99.90
21298;DHT22;10808;48.010;11.326;2023-09-19T01:05:29;16.80;99.90
21298;DHT22;10808;48.010;11.326;2023-09-19T01:07:57;16.80;99.90
21298;DHT22;10808;48.010;11.326;2023-09-19T01:10:25;16.80;99.90
21298;DHT22;10808;48.010;11.326;2023-09-19T01:20:45;16.90;99.90
21298;DHT22;10808;48.010;11.326;2023-09-19T01:28:48;17.00;99.90
21298;DHT22;10808;48.010;11.326;2023-09-19T01:31:42;17.00;99.90
21298;DHT22;10808;48.010;11.326;2023-09-19T01:34:10;17.10;99.90
21298;DHT22;10808;48.010;11.326;2023-09-19T01:36:37;17.10;99.90
21298;DHT22;10808;48.010;11.326;2023-09-19T01:39:13;17.10;99.90
21298;DHT22;10808;48.010;11.326;2023-09-19T01:42:34;17.10;99.90
21298;DHT22;10808;48.010;11.326;2023-09-19T01:45:11;17.10;99.90
21298;DHT22;10808;48.010;11.326;2023-09-19T01:48:25;17.10;99.90
21298;DHT22;10808;48.010;11.326;2023-09-19T01:53:35;17.10;99.90
21298;DHT22;10808;48.010;11.326;2023-09-19T01:56:05;17.10;99.90
21298;DHT22;10808;48.010;11.326;2023-09-19T01:58:46;17.20;99.90
21298;DHT22;10808;48.010;11.326;2023-09-19T02:01:18;17.10;99.90
21298;DHT22;10808;48.010;11.326;2023-09-19T02:03:47;17.20;99.90
21298;DHT22;10808;48.010;11.326;2023-09-19T02:06:15;17.20;99.90
21298;DHT22;10808;48.010;11.326;2023-09-19T02:08:41;17.20;99.90
21298;DHT22;10808;48.010;11.326;2023-09-19T02:11:07;17.20;99.90
21298;DHT22;10808;48.010;11.326;2023-09-19T02:13:33;17.20;99.90
21298;DHT22;10808;48.010;11.326;2023-09-19T02:16:00;17.20;99.90
21298;DHT22;10808;48.010;11.326;2023-09-19T02:18:26;17.20;99.90
21298;DHT22;10808;48.010;11.326;2023-09-19T02:20:54;17.30;99.90
21298;DHT22;10808;48.010;11.326;2023-09-19T02:23:20;17.20;99.90
21298;DHT22;10808;48.010;11.326;2023-09-19T02:25:59;17.20;99.90
21298;DHT22;10808;48.010;11.326;2023-09-19T02:28:28;17.30;99.90
21298;DHT22;10808;48.010;11.326;2023-09-19T02:30:58;17.30;99.90
21298;DHT22;10808;48.010;11.326;2023-09-19T02:33:24;17.20;99.90
21298;DHT22;10808;48.010;11.326;2023-09-19T02:35:58;17.20;99.90
21298;DHT22;10808;48.010;11.326;2023-09-19T02:38:24;17.20;99.90
21298;DHT22;10808;48.010;11.326;2023-09-19T02:40:52;17.30;99.90
21298;DHT22;10808;48.010;11.326;2023-09-19T02:43:18;17.20;99.90
21298;DHT22;10808;48.010;11.326;2023-09-19T02:45:48;17.30;99.90
21298;DHT22;10808;48.010;11.326;2023-09-19T02:48:21;17.30;99.90
21298;DHT22;10808;48.010;11.326;2023-09-19T02:50:51;17.20;99.90
21298;DHT22;10808;48.010;11.326;2023-09-19T02:53:17;17.20;99.90
21298;DHT22;10808;48.010;11.326;2023-09-19T02:55:44;17.20;99.90
21298;DHT22;10808;48.010;11.326;2023-09-19T02:58:12;17.20;99.90
21298;DHT22;10808;48.010;11.326;2023-09-19T03:00:40;17.20;99.90
21298;DHT22;10808;48.010;11.326;2023-09-19T03:03:08;17.20;99.90
21298;DHT22;10808;48.010;11.326;2023-09-19T03:05:35;17.20;99.90
21298;DHT22;10808;48.010;11.326;2023-09-19T03:08:01;17.20;99.90
21298;DHT22;10808;48.010;11.326;2023-09-19T03:10:27;17.20;99.90
21298;DHT22;10808;48.010;11.326;2023-09-19T03:12:53;17.20;99.90
21298;DHT22;10808;48.010;11.326;2023-09-19T03:15:20;17.20;99.90
21298;DHT22;10808;48.010;11.326;2023-09-19T03:17:48;17.20;99.90
21298;DHT22;10808;48.010;11.326;2023-09-19T03:20:15;17.20;99.90
21298;DHT22;10808;48.010;11.326;2023-09-19T03:22:45;17.20;99.90
21298;DHT22;10808;48.010;11.326;2023-09-19T03:25:12;17.10;99.90
21298;DHT22;10808;48.010;11.326;2023-09-19T03:27:39;17.10;99.90
21298;DHT22;10808;48.010;11.326;2023-09-19T03:30:05;17.10;99.90
21298;DHT22;10808;48.010;11.326;2023-09-19T03:32:46;17.10;99.90
21298;DHT22;10808;48.010;11.326;2023-09-19T03:35:13;17.10;99.90
21298;DHT22;10808;48.010;11.326;2023-09-19T03:37:41;17.10;99.90
21298;DHT22;10808;48.010;11.326;2023-09-19T03:40:08;17.20;99.90
21298;DHT22;10808;48.010;11.326;2023-09-19T03:42:39;17.20;99.90
21298;DHT22;10808;48.010;11.326;2023-09-19T03:45:07;17.20;99.90
21298;DHT22;10808;48.010;11.326;2023-09-19T03:47:35;17.20;99.90
21298;DHT22;10808;48.010;11.326;2023-09-19T03:50:02;17.20;99.90
21298;DHT22;10808;48.010;11.326;2023-09-19T03:52:28;17.20;99.90
21298;DHT22;10808;48.010;11.326;2023-09-19T03:54:54;17.20;99.90
21298;DHT22;10808;48.010;11.326;2023-09-19T03:57:20;17.20;99.90
21298;DHT22;10808;48.010;11.326;2023-09-19T03:59:47;17.20;99.90
21298;DHT22;10808;48.010;11.326;2023-09-19T04:02:13;17.20;99.90
21298;DHT22;10808;48.010;11.326;2023-09-19T04:04:48;17.20;99.90
21298;DHT22;10808;48.010;11.326;2023-09-19T04:07:14;17.20;99.90
21298;DHT22;10808;48.010;11.326;2023-09-19T04:09:40;17.20;99.90
21298;DHT22;10808;48.010;11.326;2023-09-19T04:12:07;17.20;99.90
21298;DHT22;10808;48.010;11.326;2023-09-19T04:14:37;17.20;99.90
21298;DHT22;10808;48.010;11.326;2023-09-19T04:17:03;17.10;99.90
21298;DHT22;10808;48.010;11.326;2023-09-19T04:19:31;17.10;99.90
21298;DHT22;10808;48.010;11.326;2023-09-19T04:21:57;17.10;99.90
21298;DHT22;10808;48.010;11.326;2023-09-19T04:24:23;17.10;99.90
21298;DHT22;10808;48.010;11.326;2023-09-19T04:26:49;17.10;99.90
21298;DHT22;10808;48.010;11.326;2023-09-19T04:29:15;17.10;99.90
21298;DHT22;10808;48.010;11.326;2023-09-19T04:31:41;17.00;99.90
21298;DHT22;10808;48.010;11.326;2023-09-19T04:34:10;17.00;99.90
21298;DHT22;10808;48.010;11.326;2023-09-19T04:36:36;17.00;99.90
21298;DHT22;10808;48.010;11.326;2023-09-19T04:39:03;17.00;99.90
21298;DHT22;10808;48.010;11.326;2023-09-19T04:41:33;17.00;99.90
21298;DHT22;10808;48.010;11.326;2023-09-19T04:44:00;17.00;99.90
21298;DHT22;10808;48.010;11.326;2023-09-19T04:46:26;17.00;99.90
21298;DHT22;10808;48.010;11.326;2023-09-19T04:48:52;17.00;99.90
21298;DHT22;10808;48.010;11.326;2023-09-19T04:51:18;16.90;99.90
21298;DHT22;10808;48.010;11.326;2023-09-19T04:53:46;16.90;99.90
21298;DHT22;10808;48.010;11.326;2023-09-19T04:56:13;16.90;99.90
21298;DHT22;10808;48.010;11.326;2023-09-19T04:58:39;16.90;99.90
21298;DHT22;10808;48.010;11.326;2023-09-19T05:01:05;16.80;99.90
21298;DHT22;10808;48.010;11.326;2023-09-19T05:03:32;16.80;99.90
21298;DHT22;10808;48.010;11.326;2023-09-19T05:05:58;16.80;99.90
21298;DHT22;10808;48.010;11.326;2023-09-19T05:08:24;16.80;99.90
21298;DHT22;10808;48.010;11.326;2023-09-19T05:10:51;16.80;99.90
21298;DHT22;10808;48.010;11.326;2023-09-19T05:13:17;16.80;99.90
21298;DHT22;10808;48.010;11.326;2023-09-19T05:15:43;16.80;99.90
21298;DHT22;10808;48.010;11.326;2023-09-19T05:18:09;16.70;99.90
21298;DHT22;10808;48.010;11.326;2023-09-19T05:20:36;16.70;99.90
21298;DHT22;10808;48.010;11.326;2023-09-19T05:23:06;16.70;99.90
21298;DHT22;10808;48.010;11.326;2023-09-19T05:25:39;16.70;99.90
21298;DHT22;10808;48.010;11.326;2023-09-19T05:28:06;16.70;99.90
21298;DHT22;10808;48.010;11.326;2023-09-19T05:30:33;16.70;99.90
21298;DHT22;10808;48.010;11.326;2023-09-19T05:33:05;16.80;99.90
21298;DHT22;10808;48.010;11.326;2023-09-19T05:35:31;16.80;99.90
21298;DHT22;10808;48.010;11.326;2023-09-19T05:37:58;16.80;99.90
21298;DHT22;10808;48.010;11.326;2023-09-19T05:40:25;16.80;99.90
21298;DHT22;10808;48.010;11.326;2023-09-19T05:42:51;16.80;99.90
21298;DHT22;10808;48.010;11.326;2023-09-19T05:45:17;16.80;99.90
21298;DHT22;10808;48.010;11.326;2023-09-19T05:47:49;16.80;99.90
21298;DHT22;10808;48.010;11.326;2023-09-19T05:50:16;16.80;99.90
21298;DHT22;10808;48.010;11.326;2023-09-19T05:52:42;16.80;99.90
21298;DHT22;10808;48.010;11.326;2023-09-19T05:55:11;16.90;99.90
21298;DHT22;10808;48.010;11.326;2023-09-19T05:57:38;16.90;99.90
21298;DHT22;10808;48.010;11.326;2023-09-19T06:00:10;16.90;99.90
21298;DHT22;10808;48.010;11.326;2023-09-19T06:02:37;16.90;99.90
21298;DHT22;10808;48.010;11.326;2023-09-19T06:05:05;17.00;99.90
21298;DHT22;10808;48.010;11.326;2023-09-19T06:07:34;17.00;99.90
21298;DHT22;10808;48.010;11.326;2023-09-19T06:10:04;17.10;99.90
21298;DHT22;10808;48.010;11.326;2023-09-19T06:12:32;17.10;99.90
21298;DHT22;10808;48.010;11.326;2023-09-19T06:15:01;17.10;99.90
21298;DHT22;10808;48.010;11.326;2023-09-19T06:17:27;17.10;99.90
21298;DHT22;10808;48.010;11.326;2023-09-19T06:19:53;17.10;99.90
21298;DHT22;10808;48.010;11.326;2023-09-19T06:22:20;17.20;99.90
21298;DHT22;10808;48.010;11.326;2023-09-19T06:24:46;17.20;99.90
21298;DHT22;10808;48.010;11.326;2023-09-19T06:27:13;17.30;99.90
21298;DHT22;10808;48.010;11.326;2023-09-19T06:29:39;17.40;99.90
21298;DHT22;10808;48.010;11.326;2023-09-19T06:32:08;17.40;99.90
21298;DHT22;10808;48.010;11.326;2023-09-19T06:34:36;17.50;99.90
21298;DHT22;10808;48.010;11.326;2023-09-19T06:37:04;17.50;99.90
21298;DHT22;10808;48.010;11.326;2023-09-19T06:39:32;17.60;99.90
21298;DHT22;10808;48.010;11.326;2023-09-19T06:41:58;17.60;99.90
21298;DHT22;10808;48.010;11.326;2023-09-19T06:44:26;17.60;99.90
21298;DHT22;10808;48.010;11.326;2023-09-19T06:46:52;17.60;99.90
21298;DHT22;10808;48.010;11.326;2023-09-19T06:49:18;17.60;99.90
21298;DHT22;10808;48.010;11.326;2023-09-19T06:51:44;17.70;99.90
21298;DHT22;10808;48.010;11.326;2023-09-19T06:54:10;17.70;99.90
21298;DHT22;10808;48.010;11.326;2023-09-19T06:56:36;17.70;99.90
21298;DHT22;10808;48.010;11.326;2023-09-19T06:59:02;17.80;99.90
21298;DHT22;10808;48.010;11.326;2023-09-19T07:01:31;17.80;99.90
21298;DHT22;10808;48.010;11.326;2023-09-19T07:03:58;17.80;99.90
21298;DHT22;10808;48.010;11.326;2023-09-19T07:06:24;17.80;99.90
21298;DHT22;10808;48.010;11.326;2023-09-19T07:08:50;17.80;99.90
21298;DHT22;10808;48.010;11.326;2023-09-19T07:11:16;17.80;99.90
21298;DHT22;10808;48.010;11.326;2023-09-19T07:13:42;17.80;99.90
21298;DHT22;10808;48.010;11.326;2023-09-19T07:16:09;17.80;99.90
21298;DHT22;10808;48.010;11.326;2023-09-19T07:18:53;17.80;99.90
21298;DHT22;10808;48.010;11.326;2023-09-19T07:21:23;17.80;99.90
21298;DHT22;10808;48.010;11.326;2023-09-19T07:23:49;17.80;99.90
21298;DHT22;10808;48.010;11.326;2023-09-19T07:26:16;17.90;99.90
21298;DHT22;10808;48.010;11.326;2023-09-19T07:28:42;17.90;99.90
21298;DHT22;10808;48.010;11.326;2023-09-19T07:31:08;17.90;99.90
21298;DHT22;10808;48.010;11.326;2023-09-19T07:33:35;17.90;99.90
21298;DHT22;10808;48.010;11.326;2023-09-19T07:36:02;18.00;99.90
21298;DHT22;10808;48.010;11.326;2023-09-19T07:38:28;18.00;99.90
21298;DHT22;10808;48.010;11.326;2023-09-19T07:41:00;18.00;99.90
21298;DHT22;10808;48.010;11.326;2023-09-19T07:43:26;18.10;99.90
21298;DHT22;10808;48.010;11.326;2023-09-19T07:45:52;18.20;99.90
21298;DHT22;10808;48.010;11.326;2023-09-19T07:48:19;18.20;99.90
21298;DHT22;10808;48.010;11.326;2023-09-19T07:50:45;18.30;99.90
21298;DHT22;10808;48.010;11.326;2023-09-19T07:53:11;18.40;99.90
21298;DHT22;10808;48.010;11.326;2023-09-19T07:55:39;18.40;99.90
21298;DHT22;10808;48.010;11.326;2023-09-19T07:58:07;18.50;99.90
21298;DHT22;10808;48.010;11.326;2023-09-19T08:00:33;18.70;99.90
21298;DHT22;10808;48.010;11.326;2023-09-19T08:03:01;18.80;99.90
21298;DHT22;10808;48.010;11.326;2023-09-19T08:05:28;19.00;99.90
21298;DHT22;10808;48.010;11.326;2023-09-19T08:07:54;19.10;99.90
21298;DHT22;10808;48.010;11.326;2023-09-19T08:10:22;19.10;99.90
21298;DHT22;10808;48.010;11.326;2023-09-19T08:12:49;19.20;99.90
21298;DHT22;10808;48.010;11.326;2023-09-19T08:15:21;19.20;99.90
21298;DHT22;10808;48.010;11.326;2023-09-19T08:17:48;19.30;99.90
21298;DHT22;10808;48.010;11.326;2023-09-19T08:20:15;19.30;99.90
21298;DHT22;10808;48.010;11.326;2023-09-19T08:25:16;19.50;99.90
21298;DHT22;10808;48.010;11.326;2023-09-19T08:27:48;19.60;99.90
21298;DHT22;10808;48.010;11.326;2023-09-19T08:30:16;19.70;99.90
21298;DHT22;10808;48.010;11.326;2023-09-19T08:32:42;19.80;99.90
21298;DHT22;10808;48.010;11.326;2023-09-19T08:35:09;19.90;99.90
21298;DHT22;10808;48.010;11.326;2023-09-19T08:37:36;20.00;99.90
21298;DHT22;10808;48.010;11.326;2023-09-19T08:40:02;20.10;99.90
21298;DHT22;10808;48.010;11.326;2023-09-19T08:42:28;20.10;99.90
21298;DHT22;10808;48.010;11.326;2023-09-19T08:44:55;20.20;99.90
21298;DHT22;10808;48.010;11.326;2023-09-19T08:47:33;20.20;99.90
21298;DHT22;10808;48.010;11.326;2023-09-19T08:50:24;20.30;99.90
21298;DHT22;10808;48.010;11.326;2023-09-19T08:52:52;20.30;99.90
21298;DHT22;10808;48.010;11.326;2023-09-19T08:55:23;20.30;99.90
21298;DHT22;10808;48.010;11.326;2023-09-19T08:57:59;20.30;99.90
21298;DHT22;10808;48.010;11.326;2023-09-19T09:00:26;20.30;99.90
21298;DHT22;10808;48.010;11.326;2023-09-19T09:02:55;20.40;99.90
21298;DHT22;10808;48.010;11.326;2023-09-19T09:05:22;20.50;99.90
21298;DHT22;10808;48.010;11.326;2023-09-19T09:07:50;20.40;99.90
21298;DHT22;10808;48.010;11.326;2023-09-19T09:10:18;20.30;99.90
21298;DHT22;10808;48.010;11.326;2023-09-19T09:12:58;20.50;99.90
21298;DHT22;10808;48.010;11.326;2023-09-19T09:15:25;20.60;99.90
21298;DHT22;10808;48.010;11.326;2023-09-19T09:17:51;20.90;99.90
21298;DHT22;10808;48.010;11.326;2023-09-19T09:20:19;21.20;99.90
21298;DHT22;10808;48.010;11.326;2023-09-19T09:22:52;21.40;99.90
21298;DHT22;10808;48.010;11.326;2023-09-19T09:25:22;21.70;99.90
21298;DHT22;10808;48.010;11.326;2023-09-19T09:28:02;21.80;99.90
21298;DHT22;10808;48.010;11.326;2023-09-19T09:30:37;21.90;99.90
21298;DHT22;10808;48.010;11.326;2023-09-19T09:33:08;22.00;99.90
21298;DHT22;10808;48.010;11.326;2023-09-19T09:35:46;21.80;99.90
21298;DHT22;10808;48.010;11.326;2023-09-19T09:38:12;21.70;99.90
21298;DHT22;10808;48.010;11.326;2023-09-19T09:40:46;21.50;99.90
21298;DHT22;10808;48.010;11.326;2023-09-19T09:43:34;21.30;99.90
21298;DHT22;10808;48.010;11.326;2023-09-19T09:46:17;21.10;99.90
21298;DHT22;10808;48.010;11.326;2023-09-19T09:49:00;21.10;99.90
21298;DHT22;10808;48.010;11.326;2023-09-19T09:52:02;21.10;99.90
21298;DHT22;10808;48.010;11.326;2023-09-19T09:55:04;21.20;99.90
21298;DHT22;10808;48.010;11.326;2023-09-19T09:57:34;21.30;99.90
21298;DHT22;10808;48.010;11.326;2023-09-19T10:00:01;21.40;99.90
21298;DHT22;10808;48.010;11.326;2023-09-19T10:02:39;21.50;99.90
21298;DHT22;10808;48.010;11.326;2023-09-19T10:05:17;21.60;99.90
21298;DHT22;10808;48.010;11.326;2023-09-19T10:07:50;21.90;99.90
21298;DHT22;10808;48.010;11.326;2023-09-19T10:10:32;22.10;99.90
21298;DHT22;10808;48.010;11.326;2023-09-19T10:13:10;22.30;99.90
21298;DHT22;10808;48.010;11.326;2023-09-19T10:15:50;22.30;99.90
21298;DHT22;10808;48.010;11.326;2023-09-19T10:18:26;22.20;99.90
21298;DHT22;10808;48.010;11.326;2023-09-19T10:20:53;22.30;99.90
21298;DHT22;10808;48.010;11.326;2023-09-19T10:23:21;22.40;99.90
21298;DHT22;10808;48.010;11.326;2023-09-19T10:25:52;22.50;99.90
21298;DHT22;10808;48.010;11.326;2023-09-19T10:28:20;22.60;99.90
21298;DHT22;10808;48.010;11.326;2023-09-19T10:30:52;22.90;99.90
21298;DHT22;10808;48.010;11.326;2023-09-19T10:33:20;23.20;99.90
21298;DHT22;10808;48.010;11.326;2023-09-19T10:35:48;23.30;99.90
21298;DHT22;10808;48.010;11.326;2023-09-19T10:38:18;23.20;99.90
21298;DHT22;10808;48.010;11.326;2023-09-19T10:40:52;23.20;99.90
21298;DHT22;10808;48.010;11.326;2023-09-19T10:43:20;23.20;99.90
21298;DHT22;10808;48.010;11.326;2023-09-19T10:45:48;23.20;99.90
21298;DHT22;10808;48.010;11.326;2023-09-19T10:48:16;23.30;99.90
21298;DHT22;10808;48.010;11.326;2023-09-19T10:53:26;23.20;99.40
21298;DHT22;10808;48.010;11.326;2023-09-19T10:55:57;23.30;99.60
21298;DHT22;10808;48.010;11.326;2023-09-19T10:58:31;23.40;99.50
21298;DHT22;10808;48.010;11.326;2023-09-19T11:01:01;23.20;99.10
21298;DHT22;10808;48.010;11.326;2023-09-19T11:03:38;23.10;99.10
21298;DHT22;10808;48.010;11.326;2023-09-19T11:06:16;23.10;98.90
21298;DHT22;10808;48.010;11.326;2023-09-19T11:08:59;23.10;99.30
21298;DHT22;10808;48.010;11.326;2023-09-19T11:33:21;23.40;97.60
21298;DHT22;10808;48.010;11.326;2023-09-19T11:46:53;24.30;97.60
21298;DHT22;10808;48.010;11.326;2023-09-19T11:49:30;24.20;96.60
21298;DHT22;10808;48.010;11.326;2023-09-19T11:51:58;24.10;96.10
21298;DHT22;10808;48.010;11.326;2023-09-19T11:54:31;24.00;96.10
21298;DHT22;10808;48.010;11.326;2023-09-19T11:56:58;24.00;96.60
21298;DHT22;10808;48.010;11.326;2023-09-19T11:59:27;24.10;97.00
21298;DHT22;10808;48.010;11.326;2023-09-19T12:01:56;24.30;96.30
21298;DHT22;10808;48.010;11.326;2023-09-19T12:04:43;24.20;96.30
21298;DHT22;10808;48.010;11.326;2023-09-19T12:07:13;24.20;96.80
21298;DHT22;10808;48.010;11.326;2023-09-19T12:09:47;24.30;96.40
21298;DHT22;10808;48.010;11.326;2023-09-19T12:12:23;24.40;95.80
21298;DHT22;10808;48.010;11.326;2023-09-19T12:14:54;24.50;96.90
21298;DHT22;10808;48.010;11.326;2023-09-19T12:17:20;24.60;95.80
21298;DHT22;10808;48.010;11.326;2023-09-19T12:19:51;24.50;95.20
21298;DHT22;10808;48.010;11.326;2023-09-19T12:22:17;24.60;95.20
21298;DHT22;10808;48.010;11.326;2023-09-19T12:24:46;24.60;95.60
21298;DHT22;10808;48.010;11.326;2023-09-19T12:27:13;24.70;96.20
21298;DHT22;10808;48.010;11.326;2023-09-19T12:29:49;24.90;95.70
21298;DHT22;10808;48.010;11.326;2023-09-19T12:32:15;25.00;95.30
21298;DHT22;10808;48.010;11.326;2023-09-19T12:34:53;25.00;95.20
21298;DHT22;10808;48.010;11.326;2023-09-19T12:37:20;24.90;94.90
21298;DHT22;10808;48.010;11.326;2023-09-19T12:39:54;24.90;95.10
21298;DHT22;10808;48.010;11.326;2023-09-19T12:42:40;25.00;95.30
21298;DHT22;10808;48.010;11.326;2023-09-19T12:45:07;25.00;94.90
21298;DHT22;10808;48.010;11.326;2023-09-19T12:47:37;24.90;94.80
21298;DHT22;10808;48.010;11.326;2023-09-19T12:50:15;24.90;95.10
21298;DHT22;10808;48.010;11.326;2023-09-19T12:52:52;24.90;94.70
21298;DHT22;10808;48.010;11.326;2023-09-19T12:55:25;24.90;94.60
21298;DHT22;10808;48.010;11.326;2023-09-19T13:00:38;25.00;94.20
21298;DHT22;10808;48.010;11.326;2023-09-19T13:03:29;25.10;93.80
21298;DHT22;10808;48.010;11.326;2023-09-19T13:06:02;25.20;93.80
21298;DHT22;10808;48.010;11.326;2023-09-19T13:08:35;25.20;93.50
21298;DHT22;10808;48.010;11.326;2023-09-19T13:11:11;25.10;93.90
21298;DHT22;10808;48.010;11.326;2023-09-19T13:13:49;25.20;93.90
21298;DHT22;10808;48.010;11.326;2023-09-19T13:16:20;25.40;93.30
21298;DHT22;10808;48.010;11.326;2023-09-19T13:18:52;25.50;93.20
21298;DHT22;10808;48.010;11.326;2023-09-19T13:21:33;25.50;93.30
21298;DHT22;10808;48.010;11.326;2023-09-19T13:27:09;25.90;93.00
21298;DHT22;10808;48.010;11.326;2023-09-19T13:29:35;26.00;93.40
21298;DHT22;10808;48.010;11.326;2023-09-19T13:32:02;26.10;93.10
21298;DHT22;10808;48.010;11.326;2023-09-19T13:34:28;26.20;93.00
21298;DHT22;10808;48.010;11.326;2023-09-19T13:36:55;26.20;92.70
21298;DHT22;10808;48.010;11.326;2023-09-19T13:39:21;26.20;92.40
21298;DHT22;10808;48.010;11.326;2023-09-19T13:41:50;26.30;92.50
21298;DHT22;10808;48.010;11.326;2023-09-19T13:44:16;26.50;92.40
21298;DHT22;10808;48.010;11.326;2023-09-19T13:46:43;26.60;92.20
21298;DHT22;10808;48.010;11.326;2023-09-19T13:49:11;26.70;92.20
21298;DHT22;10808;48.010;11.326;2023-09-19T13:51:37;26.70;92.40
21298;DHT22;10808;48.010;11.326;2023-09-19T13:54:04;26.70;91.30
21298;DHT22;10808;48.010;11.326;2023-09-19T13:56:30;26.60;91.60
21298;DHT22;10808;48.010;11.326;2023-09-19T13:58:57;26.60;91.20
21298;DHT22;10808;48.010;11.326;2023-09-19T14:01:23;26.60;91.10
21298;DHT22;10808;48.010;11.326;2023-09-19T14:03:49;26.50;90.90
21298;DHT22;10808;48.010;11.326;2023-09-19T14:06:17;26.50;91.00
21298;DHT22;10808;48.010;11.326;2023-09-19T14:08:44;26.50;91.20
21298;DHT22;10808;48.010;11.326;2023-09-19T14:11:13;26.50;91.10
21298;DHT22;10808;48.010;11.326;2023-09-19T14:13:40;26.40;90.60
21298;DHT22;10808;48.010;11.326;2023-09-19T14:16:07;26.40;91.00
21298;DHT22;10808;48.010;11.326;2023-09-19T14:18:35;26.50;90.80
21298;DHT22;10808;48.010;11.326;2023-09-19T14:21:04;26.50;90.80
21298;DHT22;10808;48.010;11.326;2023-09-19T14:23:38;26.50;90.50
21298;DHT22;10808;48.010;11.326;2023-09-19T14:26:05;26.50;90.50
21298;DHT22;10808;48.010;11.326;2023-09-19T14:28:32;26.60;91.10
21298;DHT22;10808;48.010;11.326;2023-09-19T14:31:10;26.60;90.00
21298;DHT22;10808;48.010;11.326;2023-09-19T14:33:37;26.70;90.10
21298;DHT22;10808;48.010;11.326;2023-09-19T14:36:05;26.70;89.80
21298;DHT22;10808;48.010;11.326;2023-09-19T14:38:33;26.80;90.10
21298;DHT22;10808;48.010;11.326;2023-09-19T14:41:02;26.80;89.50
21298;DHT22;10808;48.010;11.326;2023-09-19T14:43:29;26.90;89.60
21298;DHT22;10808;48.010;11.326;2023-09-19T14:45:56;26.80;89.40
21298;DHT22;10808;48.010;11.326;2023-09-19T14:48:25;26.80;89.30
21298;DHT22;10808;48.010;11.326;2023-09-19T14:50:52;26.80;90.00
21298;DHT22;10808;48.010;11.326;2023-09-19T14:53:19;26.80;88.50
21298;DHT22;10808;48.010;11.326;2023-09-19T14:55:45;26.80;88.50
21298;DHT22;10808;48.010;11.326;2023-09-19T14:58:14;26.60;88.80
21298;DHT22;10808;48.010;11.326;2023-09-19T15:00:40;26.60;90.00
21298;DHT22;10808;48.010;11.326;2023-09-19T15:03:06;26.50;89.10
21298;DHT22;10808;48.010;11.326;2023-09-19T15:05:32;26.50;89.10
21298;DHT22;10808;48.010;11.326;2023-09-19T15:07:59;26.40;88.90
21298;DHT22;10808;48.010;11.326;2023-09-19T15:10:25;26.40;90.20
21298;DHT22;10808;48.010;11.326;2023-09-19T15:12:51;26.30;89.30
21298;DHT22;10808;48.010;11.326;2023-09-19T15:15:17;26.10;89.60
21298;DHT22;10808;48.010;11.326;2023-09-19T15:17:43;25.80;89.80
21298;DHT22;10808;48.010;11.326;2023-09-19T15:20:10;25.80;89.70
21298;DHT22;10808;48.010;11.326;2023-09-19T15:22:40;25.50;89.90
21298;DHT22;10808;48.010;11.326;2023-09-19T15:25:06;25.20;90.30
21298;DHT22;10808;48.010;11.326;2023-09-19T15:27:32;25.10;90.70
21298;DHT22;10808;48.010;11.326;2023-09-19T15:30:02;25.00;90.90
21298;DHT22;10808;48.010;11.326;2023-09-19T15:32:28;24.90;91.20
21298;DHT22;10808;48.010;11.326;2023-09-19T15:34:55;24.70;91.40
21298;DHT22;10808;48.010;11.326;2023-09-19T15:37:21;24.60;91.50
21298;DHT22;10808;48.010;11.326;2023-09-19T15:39:48;24.40;91.90
21298;DHT22;10808;48.010;11.326;2023-09-19T15:42:14;24.30;92.00
21298;DHT22;10808;48.010;11.326;2023-09-19T15:44:42;24.10;92.90
21298;DHT22;10808;48.010;11.326;2023-09-19T15:47:10;24.10;92.90
21298;DHT22;10808;48.010;11.326;2023-09-19T15:49:36;24.10;93.10
21298;DHT22;10808;48.010;11.326;2023-09-19T15:52:02;24.00;93.30
21298;DHT22;10808;48.010;11.326;2023-09-19T15:54:29;24.00;93.30
21298;DHT22;10808;48.010;11.326;2023-09-19T15:56:55;23.80;93.10
21298;DHT22;10808;48.010;11.326;2023-09-19T15:59:21;23.70;93.30
21298;DHT22;10808;48.010;11.326;2023-09-19T16:01:47;23.70;93.30
21298;DHT22;10808;48.010;11.326;2023-09-19T16:04:14;23.50;93.20
21298;DHT22;10808;48.010;11.326;2023-09-19T16:06:40;23.40;93.30
21298;DHT22;10808;48.010;11.326;2023-09-19T16:09:06;23.40;93.80
21298;DHT22;10808;48.010;11.326;2023-09-19T16:11:33;23.40;94.10
21298;DHT22;10808;48.010;11.326;2023-09-19T16:14:01;23.30;94.10
21298;DHT22;10808;48.010;11.326;2023-09-19T16:16:28;23.20;94.10
21298;DHT22;10808;48.010;11.326;2023-09-19T16:18:57;23.10;94.20
21298;DHT22;10808;48.010;11.326;2023-09-19T16:21:30;23.00;94.30
21298;DHT22;10808;48.010;11.326;2023-09-19T16:23:58;22.90;94.90
21298;DHT22;10808;48.010;11.326;2023-09-19T16:26:26;22.80;94.90
21298;DHT22;10808;48.010;11.326;2023-09-19T16:28:55;22.70;95.10